createdAt,value
2023-05-02T00:02:34.984Z,3.30
2023-05-02T00:05:38.183Z,5.03
2023-05-02T00:08:48.382Z,3.45
2023-05-02T00:11:50.583Z,2.28
2023-05-02T00:14:57.319Z,1.60
2023-05-02T00:18:00.337Z,2.45
2023-05-02T00:21:02.862Z,2.95
2023-05-02T00:24:05.546Z,2.05
2023-05-02T00:27:08.056Z,2.17
2023-05-02T00:30:11.360Z,1.83
2023-05-02T00:33:16.038Z,2.55
2023-05-02T00:36:19.945Z,2.10
2023-05-02T00:39:22.477Z,3.50
2023-05-02T00:42:24.765Z,1.73
2023-05-02T00:45:31.454Z,3.50
2023-05-02T00:48:33.980Z,3.17
2023-05-02T00:51:36.362Z,2.33
2023-05-02T00:54:39.770Z,2.28
2023-05-02T00:57:41.999Z,1.92
2023-05-02T01:01:02.578Z,1.00
2023-05-02T01:04:30.172Z,1.80
2023-05-02T01:07:57.488Z,2.42
2023-05-02T01:11:15.199Z,3.80
2023-05-02T01:14:18.056Z,3.25
2023-05-02T01:17:31.159Z,2.57
2023-05-02T01:20:38.559Z,2.25
2023-05-02T01:24:10.866Z,2.38
2023-05-02T01:27:31.346Z,1.73
2023-05-02T01:30:43.332Z,3.08
2023-05-02T01:33:46.274Z,2.97
2023-05-02T01:36:59.272Z,2.80
2023-05-02T01:40:06.198Z,2.03
2023-05-02T01:43:09.383Z,2.63
2023-05-02T01:46:15.916Z,4.28
2023-05-02T01:49:24.154Z,2.63
2023-05-02T01:52:27.656Z,5.20
2023-05-02T01:55:29.928Z,3.30
2023-05-02T01:58:33.555Z,3.60
2023-05-02T02:01:37.999Z,1.90
2023-05-02T02:04:41.519Z,2.77
2023-05-02T02:07:53.661Z,3.10
2023-05-02T02:11:00.173Z,2.50
2023-05-02T02:14:08.539Z,2.25
2023-05-02T02:17:22.438Z,3.72
2023-05-02T02:20:26.877Z,2.17
2023-05-02T02:23:30.209Z,2.15
2023-05-02T02:26:32.915Z,3.47
2023-05-02T02:29:35.238Z,2.78
2023-05-02T02:32:37.484Z,2.63
2023-05-02T02:35:48.402Z,2.43
2023-05-02T02:39:06.487Z,2.60
2023-05-02T02:42:25.595Z,2.28
2023-05-02T02:45:35.309Z,1.85
2023-05-02T02:48:42.361Z,2.40
2023-05-02T02:52:10.587Z,2.17
2023-05-02T02:55:25.956Z,1.70
2023-05-02T02:58:46.174Z,1.80
2023-05-02T03:01:58.012Z,2.30
2023-05-02T03:05:02.171Z,2.35
2023-05-02T03:08:05.200Z,1.83
2023-05-02T03:11:14.419Z,1.90
2023-05-02T03:14:17.350Z,1.77
2023-05-02T03:17:19.634Z,3.97
2023-05-02T03:20:22.689Z,2.00
2023-05-02T03:23:25.207Z,6.07
2023-05-02T03:26:29.823Z,1.63
2023-05-02T03:29:32.528Z,1.88
2023-05-02T03:32:34.824Z,2.28
2023-05-02T03:35:42.769Z,1.73
2023-05-02T03:38:46.563Z,1.40
2023-05-02T03:41:49.814Z,1.95
2023-05-02T03:44:55.635Z,2.70
2023-05-02T03:47:58.840Z,1.80
2023-05-02T03:51:02.982Z,1.85
2023-05-02T03:54:06.180Z,2.23
2023-05-02T03:57:09.364Z,1.88
2023-05-02T04:00:12.249Z,2.13
2023-05-02T04:03:14.514Z,1.48
2023-05-02T04:06:19.777Z,2.53
2023-05-02T04:09:28.486Z,1.77
2023-05-02T04:12:36.274Z,3.45
2023-05-02T04:15:39.068Z,3.67
2023-05-02T04:18:42.168Z,1.85
2023-05-02T04:21:45.793Z,1.70
2023-05-02T04:24:48.945Z,4.00
2023-05-02T04:27:51.576Z,1.75
2023-05-02T04:30:57.768Z,1.65
2023-05-02T04:34:01.803Z,1.67
2023-05-02T04:37:09.251Z,2.13
2023-05-02T04:40:12.588Z,2.37
2023-05-02T04:43:15.544Z,1.77
2023-05-02T04:46:23.879Z,2.67
2023-05-02T04:49:26.838Z,1.67
2023-05-02T04:52:30.419Z,2.80
2023-05-02T04:55:32.961Z,2.13
2023-05-02T04:58:35.471Z,1.25
2023-05-02T05:01:40.921Z,2.78
2023-05-02T05:04:46.071Z,3.28
2023-05-02T05:07:49.038Z,3.03
2023-05-02T05:10:53.032Z,2.37
2023-05-02T05:13:57.220Z,3.28
2023-05-02T05:17:01.102Z,2.33
2023-05-02T05:20:04.386Z,1.15
2023-05-02T05:23:07.273Z,2.67
2023-05-02T05:26:18.047Z,2.77
2023-05-02T05:29:23.194Z,3.33
2023-05-02T05:32:26.148Z,2.60
2023-05-02T05:35:29.072Z,1.30
2023-05-02T05:38:33.989Z,1.73
2023-05-02T05:41:36.742Z,2.23
2023-05-02T05:44:41.764Z,2.03
2023-05-02T05:47:44.934Z,1.48
2023-05-02T05:50:47.886Z,1.55
2023-05-02T05:53:50.209Z,3.03
2023-05-02T05:56:53.054Z,2.47
2023-05-02T05:59:56.101Z,2.20
2023-05-02T06:02:58.720Z,4.60
2023-05-02T06:06:04.624Z,1.75
2023-05-02T06:09:07.100Z,1.35
2023-05-02T06:12:09.531Z,2.57
2023-05-02T06:15:13.623Z,3.72
2023-05-02T06:18:16.916Z,2.53
2023-05-02T06:21:19.353Z,2.28
2023-05-02T06:24:21.742Z,4.20
2023-05-02T06:27:24.008Z,2.43
2023-05-02T06:30:26.946Z,2.58
2023-05-02T06:33:30.761Z,2.10
2023-05-02T06:36:33.038Z,2.38
2023-05-02T06:39:35.485Z,2.00
2023-05-02T06:42:38.066Z,2.80
2023-05-02T06:45:40.955Z,2.05
2023-05-02T06:48:43.300Z,2.83
2023-05-02T06:51:45.566Z,3.55
2023-05-02T06:54:47.949Z,2.75
2023-05-02T06:57:50.991Z,5.23
2023-05-02T07:00:53.342Z,2.20
2023-05-02T07:03:55.848Z,2.47
2023-05-02T07:06:58.368Z,3.00
2023-05-02T07:10:00.910Z,2.42
2023-05-02T07:13:03.830Z,2.87
2023-05-02T07:16:06.833Z,1.98
2023-05-02T07:19:09.146Z,2.92
2023-05-02T07:22:11.463Z,2.50
2023-05-02T07:25:13.794Z,2.90
2023-05-02T07:28:15.995Z,2.97
2023-05-02T07:31:19.032Z,3.30
2023-05-02T07:34:21.486Z,2.05
2023-05-02T07:37:23.934Z,3.38
2023-05-02T07:40:26.330Z,2.15
2023-05-02T07:43:28.669Z,3.03
2023-05-02T07:46:31.738Z,3.40
2023-05-02T07:49:34.032Z,2.25
2023-05-02T07:52:36.305Z,2.78
2023-05-02T07:55:38.588Z,2.50
2023-05-02T07:58:40.945Z,2.03
2023-05-02T08:01:43.342Z,1.85
2023-05-02T08:04:47.832Z,3.20
2023-05-02T08:07:50.549Z,5.05
2023-05-02T08:10:52.872Z,2.28
2023-05-02T08:13:55.598Z,2.00
2023-05-02T08:16:58.701Z,2.45
2023-05-02T08:20:04.156Z,4.95
2023-05-02T08:23:06.462Z,2.83
2023-05-02T08:26:08.802Z,3.17
2023-05-02T08:29:12.656Z,1.93
2023-05-02T08:32:14.987Z,1.98
2023-05-02T08:35:17.362Z,2.42
2023-05-02T08:38:19.630Z,2.22
2023-05-02T08:41:22.824Z,3.38
2023-05-02T08:44:25.404Z,3.07
2023-05-02T08:47:29.918Z,2.67
2023-05-02T08:50:33.538Z,2.80
2023-05-02T08:53:37.087Z,3.28
2023-05-02T08:56:39.468Z,2.63
2023-05-02T08:59:42.990Z,2.73
2023-05-02T09:03:11.671Z,2.30
2023-05-02T09:06:16.374Z,3.05
2023-05-02T09:09:19.505Z,3.17
2023-05-02T09:12:26.502Z,3.47
2023-05-02T09:15:28.893Z,2.17
2023-05-02T09:18:40.392Z,2.83
2023-05-02T09:21:43.372Z,3.45
2023-05-02T09:24:55.033Z,2.88
2023-05-02T09:27:58.955Z,2.45
2023-05-02T09:31:09.427Z,2.90
2023-05-02T09:34:13.784Z,3.03
2023-05-02T09:37:34.924Z,2.42
2023-05-02T09:40:38.078Z,4.75
2023-05-02T09:43:41.305Z,2.10
2023-05-02T09:46:48.032Z,3.33
2023-05-02T09:49:50.479Z,2.97
2023-05-02T09:53:09.851Z,4.20
2023-05-02T09:56:12.615Z,3.03
2023-05-02T09:59:16.910Z,3.08
2023-05-02T10:02:21.881Z,3.17
2023-05-02T10:05:24.948Z,4.90
2023-05-02T10:08:28.695Z,3.53
2023-05-02T10:11:32.569Z,2.78
2023-05-02T10:14:41.778Z,3.00
2023-05-02T10:17:49.197Z,3.77
2023-05-02T10:21:08.175Z,3.75
2023-05-02T10:24:12.040Z,1.83
2023-05-02T10:27:14.787Z,3.25
2023-05-02T10:30:17.711Z,4.93
2023-05-02T10:33:21.602Z,2.07
2023-05-02T10:36:24.040Z,3.05
2023-05-02T10:39:27.725Z,3.15
2023-05-02T10:42:30.723Z,2.75
2023-05-02T10:45:37.733Z,2.80
2023-05-02T10:48:40.203Z,3.93
2023-05-02T10:51:43.657Z,2.88
2023-05-02T10:54:46.312Z,3.25
2023-05-02T10:58:00.548Z,3.67
2023-05-02T11:01:38.005Z,3.40
2023-05-02T11:05:02.059Z,4.17
2023-05-02T11:08:19.391Z,2.45
2023-05-02T11:11:43.521Z,2.85
2023-05-02T11:14:47.740Z,3.40
2023-05-02T11:18:12.035Z,2.88
2023-05-02T11:21:32.846Z,3.90
2023-05-02T11:24:41.916Z,3.55
2023-05-02T11:27:46.331Z,5.68
2023-05-02T11:30:51.003Z,3.40
2023-05-02T11:34:03.871Z,3.08
2023-05-02T11:37:14.037Z,3.17
2023-05-02T11:40:16.585Z,2.83
2023-05-02T11:43:21.630Z,3.35
2023-05-02T11:46:24.072Z,2.47
2023-05-02T11:49:27.100Z,2.85
2023-05-02T11:52:30.775Z,2.97
2023-05-02T11:55:33.059Z,3.67
2023-05-02T11:58:35.462Z,4.22
2023-05-02T12:01:47.114Z,3.03
2023-05-02T12:04:49.541Z,3.17
2023-05-02T12:07:51.850Z,3.37
2023-05-02T12:10:56.022Z,2.78
2023-05-02T12:13:58.316Z,3.72
2023-05-02T12:17:06.890Z,3.05
2023-05-02T12:20:12.689Z,3.35
2023-05-02T12:23:15.232Z,3.57
2023-05-02T12:26:22.509Z,3.45
2023-05-02T12:29:38.506Z,2.85
2023-05-02T12:32:45.468Z,3.08
2023-05-02T12:35:48.157Z,3.20
2023-05-02T12:38:59.480Z,4.37
2023-05-02T12:42:12.569Z,3.65
2023-05-02T12:45:18.205Z,4.47
2023-05-02T12:48:26.161Z,3.13
2023-05-02T12:51:28.906Z,3.47
2023-05-02T12:54:31.444Z,4.07
2023-05-02T12:57:33.963Z,3.67
2023-05-02T13:00:38.722Z,3.10
2023-05-02T13:03:42.403Z,3.30
2023-05-02T13:06:46.895Z,3.15
2023-05-02T13:09:49.392Z,3.40
2023-05-02T13:12:52.685Z,3.70
2023-05-02T13:15:55.169Z,3.97
2023-05-02T13:18:57.603Z,3.25
2023-05-02T13:22:00.173Z,3.10
2023-05-02T13:25:02.706Z,3.33
2023-05-02T13:28:04.989Z,3.63
2023-05-02T13:31:07.931Z,4.28
2023-05-02T13:34:10.201Z,4.05
2023-05-02T13:37:12.447Z,3.22
2023-05-02T13:40:14.790Z,3.80
2023-05-02T13:43:17.179Z,4.47
2023-05-02T13:46:19.537Z,3.55
2023-05-02T13:49:22.129Z,3.92
2023-05-02T13:52:29.343Z,6.03
2023-05-02T13:55:31.716Z,5.73
2023-05-02T13:58:33.916Z,3.83
2023-05-02T14:01:36.352Z,3.92
2023-05-02T14:04:38.718Z,4.10
2023-05-02T14:07:40.969Z,5.25
2023-05-02T14:10:43.265Z,4.50
2023-05-02T14:13:45.741Z,4.40
2023-05-02T14:16:50.268Z,3.50
2023-05-02T14:19:53.032Z,4.13
2023-05-02T14:22:57.954Z,3.78
2023-05-02T14:26:01.582Z,4.37
2023-05-02T14:29:03.824Z,3.67
2023-05-02T14:32:07.037Z,3.22
2023-05-02T14:35:10.158Z,3.63
2023-05-02T14:38:12.483Z,4.05
2023-05-02T14:41:15.726Z,3.93
2023-05-02T14:44:18.441Z,3.70
2023-05-02T14:47:21.034Z,8.90
2023-05-02T14:50:23.290Z,4.00
2023-05-02T14:53:25.615Z,3.50
2023-05-02T14:56:28.224Z,3.80
2023-05-02T14:59:31.461Z,3.78
2023-05-02T15:02:34.830Z,7.68
2023-05-02T15:05:37.261Z,3.35
2023-05-02T15:08:39.900Z,4.13
2023-05-02T15:11:42.701Z,4.30
2023-05-02T15:14:44.973Z,5.35
2023-05-02T15:17:47.232Z,3.50
2023-05-02T15:20:49.477Z,3.80
2023-05-02T15:23:51.759Z,3.67
2023-05-02T15:26:54.084Z,3.50
2023-05-02T15:29:56.328Z,4.90
2023-05-02T15:32:58.624Z,4.35
2023-05-02T15:36:00.978Z,3.67
2023-05-02T15:39:04.475Z,3.80
2023-05-02T15:42:06.802Z,2.97
2023-05-02T15:45:11.868Z,3.95
2023-05-02T15:48:15.110Z,4.05
2023-05-02T15:51:17.853Z,4.10
2023-05-02T15:54:20.510Z,3.70
2023-05-02T15:57:23.081Z,3.47
2023-05-02T16:00:25.435Z,3.55
2023-05-02T16:03:27.860Z,4.45
2023-05-02T16:06:30.651Z,4.28
2023-05-02T16:09:33.091Z,4.20
2023-05-02T16:12:35.342Z,4.43
2023-05-02T16:15:39.449Z,4.32
2023-05-02T16:18:42.473Z,4.20
2023-05-02T16:21:44.946Z,4.20
2023-05-02T16:24:47.147Z,4.03
2023-05-02T16:27:49.401Z,3.73
2023-05-02T16:30:51.843Z,3.90
2023-05-02T16:33:54.676Z,4.05
2023-05-02T16:36:57.206Z,3.20
2023-05-02T16:40:01.004Z,3.85
2023-05-02T16:43:03.645Z,3.47
2023-05-02T16:46:06.949Z,4.25
2023-05-02T16:49:09.182Z,4.45
2023-05-02T16:52:11.477Z,4.25
2023-05-02T16:55:13.776Z,3.88
2023-05-02T16:58:16.350Z,3.70
2023-05-02T17:01:18.627Z,3.83
2023-05-02T17:04:21.591Z,3.92
2023-05-02T17:07:23.833Z,3.05
2023-05-02T17:10:26.232Z,4.60
2023-05-02T17:13:28.512Z,6.00
2023-05-02T17:16:30.855Z,3.92
2023-05-02T17:19:34.108Z,5.32
2023-05-02T17:22:37.711Z,3.75
2023-05-02T17:25:41.746Z,3.83
2023-05-02T17:28:44.546Z,4.10
2023-05-02T17:31:46.943Z,4.22
2023-05-02T17:34:49.747Z,4.47
2023-05-02T17:37:52.000Z,5.68
2023-05-02T17:40:54.308Z,4.70
2023-05-02T17:43:57.386Z,5.33
2023-05-02T17:46:59.621Z,4.63
2023-05-02T17:50:04.751Z,4.53
2023-05-02T17:53:08.253Z,5.10
2023-05-02T17:56:10.844Z,4.00
2023-05-02T17:59:13.210Z,4.83
2023-05-02T18:02:17.777Z,4.82
2023-05-02T18:05:20.118Z,5.22
2023-05-02T18:08:23.421Z,4.03
2023-05-02T18:11:27.257Z,3.92
2023-05-02T18:14:29.546Z,3.87
2023-05-02T18:17:32.135Z,3.90
2023-05-02T18:20:43.188Z,4.57
2023-05-02T18:23:46.670Z,4.22
2023-05-02T18:26:49.290Z,5.05
2023-05-02T18:29:51.664Z,4.17
2023-05-02T18:32:53.890Z,4.43
2023-05-02T18:35:57.448Z,4.25
2023-05-02T18:39:00.422Z,4.53
2023-05-02T18:42:04.111Z,5.22
2023-05-02T18:45:06.849Z,8.73
2023-05-02T18:48:09.181Z,4.45
2023-05-02T18:51:11.416Z,3.90
2023-05-02T18:54:13.783Z,4.05
2023-05-02T18:57:16.086Z,4.45
2023-05-02T19:00:20.384Z,4.50
2023-05-02T19:03:23.944Z,4.07
2023-05-02T19:06:26.898Z,3.92
2023-05-02T19:09:29.151Z,4.78
2023-05-02T19:12:31.380Z,4.93
2023-05-02T19:15:34.275Z,3.97
2023-05-02T19:18:44.520Z,4.28
2023-05-02T19:21:48.098Z,4.00
2023-05-02T19:24:51.016Z,4.03
2023-05-02T19:27:55.863Z,5.60
2023-05-02T19:30:58.116Z,4.17
2023-05-02T19:34:00.479Z,5.07
2023-05-02T19:37:07.436Z,5.40
2023-05-02T19:40:10.950Z,4.35
2023-05-02T19:43:14.731Z,4.43
2023-05-02T19:46:18.575Z,5.00
2023-05-02T19:49:20.831Z,4.25
2023-05-02T19:52:23.099Z,4.30
2023-05-02T19:55:25.351Z,5.28
2023-05-02T19:58:28.435Z,5.25
2023-05-02T20:01:31.454Z,5.43
2023-05-02T20:04:33.784Z,4.70
2023-05-02T20:07:36.201Z,4.57
2023-05-02T20:10:39.401Z,5.22
2023-05-02T20:13:45.914Z,4.18
2023-05-02T20:16:48.249Z,4.40
2023-05-02T20:19:50.593Z,4.82
2023-05-02T20:22:56.827Z,5.05
2023-05-02T20:25:59.521Z,5.50
2023-05-02T20:29:03.538Z,3.88
2023-05-02T20:32:06.003Z,4.80
2023-05-02T20:35:09.361Z,4.68
2023-05-02T20:38:12.129Z,5.43
2023-05-02T20:41:14.993Z,5.28
2023-05-02T20:44:18.702Z,5.63
2023-05-02T20:47:21.412Z,6.17
2023-05-02T20:50:23.661Z,5.13
2023-05-02T20:53:25.933Z,5.15
2023-05-02T20:56:28.182Z,6.32
2023-05-02T20:59:30.476Z,5.72
2023-05-02T21:02:32.813Z,4.37
2023-05-02T21:05:35.237Z,5.93
2023-05-02T21:08:37.490Z,5.13
2023-05-02T21:11:40.603Z,5.93
2023-05-02T21:14:42.914Z,5.00
2023-05-02T21:17:45.119Z,5.10
2023-05-02T21:20:48.931Z,5.38
2023-05-02T21:23:51.406Z,5.90
2023-05-02T21:26:53.602Z,4.38
2023-05-02T21:29:55.853Z,5.20
2023-05-02T21:32:58.093Z,5.53
2023-05-02T21:36:00.454Z,5.68
2023-05-02T21:39:02.777Z,5.30
2023-05-02T21:42:05.187Z,4.80
2023-05-02T21:45:08.120Z,5.82
2023-05-02T21:48:10.562Z,5.07
2023-05-02T21:51:14.115Z,4.75
2023-05-02T21:54:16.533Z,6.50
2023-05-02T21:57:19.237Z,4.93
2023-05-02T22:00:21.735Z,5.20
2023-05-02T22:03:25.339Z,5.63
2023-05-02T22:06:28.510Z,5.80
2023-05-02T22:09:33.205Z,5.32
2023-05-02T22:12:36.424Z,5.68
2023-05-02T22:15:43.228Z,5.78
2023-05-02T22:18:45.509Z,5.73
2023-05-02T22:21:47.745Z,5.85
2023-05-02T22:24:50.026Z,6.20
2023-05-02T22:27:52.319Z,5.65
2023-05-02T22:30:54.958Z,5.70
2023-05-02T22:33:57.218Z,7.00
2023-05-02T22:36:59.549Z,4.72
2023-05-02T22:40:02.373Z,5.47
2023-05-02T22:43:04.748Z,5.10
2023-05-02T22:46:07.160Z,6.93
2023-05-02T22:49:11.884Z,7.00
2023-05-02T22:52:14.557Z,6.43
2023-05-02T22:55:16.836Z,5.13
2023-05-02T22:58:25.668Z,6.00
2023-05-02T23:01:28.174Z,6.03
2023-05-02T23:04:32.964Z,4.53
2023-05-02T23:07:35.487Z,5.07
2023-05-02T23:10:37.744Z,4.35
2023-05-02T23:13:39.959Z,6.03
2023-05-02T23:16:42.222Z,4.78
2023-05-02T23:19:44.538Z,5.17
2023-05-02T23:22:46.835Z,6.78
2023-05-02T23:25:49.284Z,6.65
2023-05-02T23:28:51.523Z,5.50
2023-05-02T23:31:54.685Z,5.35
2023-05-02T23:34:57.141Z,6.67
2023-05-02T23:38:05.953Z,5.70
2023-05-02T23:41:08.574Z,6.30
2023-05-02T23:44:10.774Z,9.07
2023-05-02T23:47:13.120Z,5.45
2023-05-02T23:50:15.435Z,5.13
2023-05-02T23:53:17.745Z,5.18
2023-05-02T23:56:21.142Z,5.53
2023-05-02T23:59:23.610Z,8.52
